Terminal Aerodrome Forecast
Issued by NWS

Home | Current Version | Previous Version | Text Only | Print | Product List | Glossary On
Versions: 1 2 3 4 5 6 7 8 9 10 11 12 13 14 15 16 17 18
794
FTUS41 KCLE 132341
TAFFDY
TAF
KFDY 132341Z 1400/1424 28007KT P6SM VCSH BKN035
     FM140300 27007KT P6SM BKN035
     FM140800 VRB03KT P6SM SCT035
     FM141800 15008KT P6SM BKN060 OVC120=

USA.gov is the U.S. government's official web portal to all federal, state and local government web resources and services.